Time;durP1;ratioP1;P1;durP2;ratioP2;P2;SDS_P1;SDS_P2;PMS_P1;PMS_P2;Temp;Humidity;BMP_temperature;BMP_pressure;BME280_temperature;BME280_humidity;BME280_pressure;Samples;Min_cycle;Max_cycle;Signal;HPM_P1;HPM_P2
2023/08/19 00:00:06;;;;;;;20.73;18.80;;;21.40;99.90;;;;;;4999185;28;20184;-58
2023/08/19 00:02:31;;;;;;;21.67;19.50;;;21.40;99.90;;;;;;4984319;28;20058;-57
2023/08/19 00:04:58;;;;;;;21.48;19.48;;;21.40;99.90;;;;;;4985017;28;20043;-58
2023/08/19 00:07:24;;;;;;;21.20;19.08;;;21.30;99.90;;;;;;4984805;28;20456;-59
2023/08/19 00:09:49;;;;;;;22.27;19.33;;;21.40;99.90;;;;;;4985220;28;20050;-58
2023/08/19 00:12:15;;;;;;;21.55;19.50;;;21.20;99.90;;;;;;4984233;28;20104;-58
2023/08/19 00:14:41;;;;;;;21.50;19.33;;;21.30;99.90;;;;;;4984880;28;20429;-59
2023/08/19 00:17:06;;;;;;;21.80;19.58;;;21.30;99.90;;;;;;4984197;28;20058;-58
2023/08/19 00:19:32;;;;;;;22.00;19.92;;;21.20;99.90;;;;;;4984281;28;20069;-59
2023/08/19 00:21:58;;;;;;;22.70;20.00;;;21.20;99.90;;;;;;4984088;28;20038;-58
2023/08/19 00:24:23;;;;;;;21.95;19.75;;;21.20;99.90;;;;;;4983893;28;20050;-59
2023/08/19 00:26:49;;;;;;;22.67;19.65;;;21.20;99.90;;;;;;4983410;28;20045;-57
2023/08/19 00:29:14;;;;;;;22.42;20.02;;;21.20;99.90;;;;;;4984154;28;20061;-59
2023/08/19 00:31:40;;;;;;;22.67;19.77;;;21.20;99.90;;;;;;4984478;28;20051;-58
2023/08/19 00:34:06;;;;;;;22.00;19.83;;;21.20;99.90;;;;;;4983310;28;20046;-56
2023/08/19 00:36:31;;;;;;;22.25;20.13;;;21.10;99.90;;;;;;4984214;28;20148;-59
2023/08/19 00:38:57;;;;;;;20.55;18.45;;;21.10;99.90;;;;;;4984567;28;20169;-59
2023/08/19 00:41:22;;;;;;;24.70;22.08;;;21.10;99.90;;;;;;4982902;28;20054;-58
2023/08/19 00:43:48;;;;;;;23.30;20.95;;;21.00;99.90;;;;;;4983958;28;20460;-59
2023/08/19 00:46:14;;;;;;;23.23;20.73;;;21.00;99.90;;;;;;4984158;28;20065;-58
2023/08/19 00:48:40;;;;;;;23.90;21.42;;;21.00;99.90;;;;;;4983673;28;20149;-58
2023/08/19 00:51:06;;;;;;;21.75;19.52;;;20.90;99.90;;;;;;4983344;28;20054;-59
2023/08/19 00:53:34;;;;;;;23.73;21.33;;;21.00;99.90;;;;;;4984036;28;20050;-58
2023/08/19 00:55:59;;;;;;;23.60;21.08;;;20.80;99.90;;;;;;4985178;28;20084;-59
2023/08/19 00:58:25;;;;;;;24.55;22.10;;;20.90;99.90;;;;;;4990148;28;20046;-59
2023/08/19 01:00:53;;;;;;;24.33;21.73;;;20.90;99.90;;;;;;4983467;28;20418;-59
2023/08/19 01:03:18;;;;;;;22.65;20.17;;;20.80;99.90;;;;;;4999654;28;20050;-59
2023/08/19 01:06:29;;;;;;;24.05;21.58;;;20.80;99.90;;;;;;4987339;28;20058;-58
2023/08/19 01:09:01;;;;;;;24.00;21.60;;;20.80;99.90;;;;;;4971272;28;20069;-58
2023/08/19 01:12:05;;;;;;;24.48;21.88;;;20.80;99.90;;;;;;4985437;28;20057;-58
2023/08/19 01:15:13;;;;;;;25.48;22.98;;;20.80;99.90;;;;;;4977163;28;20046;-58
2023/08/19 01:17:40;;;;;;;24.08;21.35;;;20.70;99.90;;;;;;4986293;28;20046;-59
2023/08/19 01:20:11;;;;;;;25.98;22.85;;;20.70;99.90;;;;;;4986778;28;20121;-59
2023/08/19 01:22:43;;;;;;;24.10;21.50;;;20.60;99.90;;;;;;4990087;28;20033;-58
2023/08/19 01:25:10;;;;;;;24.58;22.17;;;20.70;99.90;;;;;;4998851;28;20043;-58
2023/08/19 01:27:35;;;;;;;25.92;23.05;;;20.60;99.90;;;;;;4995111;28;20050;-57
2023/08/19 01:30:01;;;;;;;25.63;23.02;;;20.70;99.90;;;;;;4987542;28;20374;-59
2023/08/19 01:32:27;;;;;;;25.90;23.23;;;20.70;99.90;;;;;;4986681;28;20042;-58
2023/08/19 01:34:53;;;;;;;25.35;22.75;;;20.70;99.90;;;;;;4986323;28;20137;-59
2023/08/19 01:37:29;;;;;;;26.52;23.92;;;20.60;99.90;;;;;;4985964;28;20117;-59
2023/08/19 01:39:58;;;;;;;26.13;23.52;;;20.60;99.90;;;;;;4986181;28;20401;-58
2023/08/19 01:42:24;;;;;;;26.05;23.25;;;20.60;99.90;;;;;;4985423;28;20118;-59
2023/08/19 01:44:51;;;;;;;24.77;22.23;;;20.60;99.90;;;;;;4985294;28;20039;-56
2023/08/19 01:47:17;;;;;;;25.90;23.40;;;20.50;99.90;;;;;;4985629;28;20050;-59
2023/08/19 01:49:43;;;;;;;26.60;23.75;;;20.60;99.90;;;;;;4986185;28;20169;-59
2023/08/19 01:52:11;;;;;;;27.50;23.83;;;20.50;99.90;;;;;;4986160;28;20065;-59
2023/08/19 01:54:37;;;;;;;25.45;22.88;;;20.50;99.90;;;;;;4986128;28;20042;-59
2023/08/19 01:57:03;;;;;;;26.95;24.15;;;20.40;99.90;;;;;;4991482;28;20445;-58
2023/08/19 01:59:29;;;;;;;24.85;22.30;;;20.50;99.90;;;;;;5003998;28;20103;-59
2023/08/19 02:01:54;;;;;;;26.70;24.10;;;20.40;99.90;;;;;;5005272;28;20069;-59
2023/08/19 02:04:20;;;;;;;27.65;24.95;;;20.40;99.90;;;;;;5003992;28;20511;-58
2023/08/19 02:06:46;;;;;;;27.85;23.40;;;20.30;99.90;;;;;;5005901;28;20374;-59
2023/08/19 02:09:11;;;;;;;27.00;24.13;;;20.30;99.90;;;;;;5005790;28;20049;-59
2023/08/19 02:11:37;;;;;;;25.77;23.15;;;20.30;99.90;;;;;;5004665;28;20050;-59
2023/08/19 02:14:03;;;;;;;26.02;23.52;;;20.30;99.90;;;;;;5003953;28;20054;-58
2023/08/19 02:16:29;;;;;;;26.33;23.73;;;20.30;99.90;;;;;;5005463;28;20400;-59
2023/08/19 02:18:57;;;;;;;29.15;23.42;;;20.30;99.90;;;;;;5005280;28;20092;-59
2023/08/19 02:21:23;;;;;;;26.98;24.40;;;20.20;99.90;;;;;;5005229;28;20123;-58
2023/08/19 02:23:49;;;;;;;27.80;24.88;;;20.20;99.90;;;;;;5006162;28;20540;-58
2023/08/19 02:26:15;;;;;;;27.08;24.30;;;20.30;99.90;;;;;;5004854;28;20409;-58
2023/08/19 02:28:40;;;;;;;26.80;23.95;;;20.30;99.90;;;;;;5005544;28;20038;-56
2023/08/19 02:31:06;;;;;;;26.85;24.20;;;20.20;99.90;;;;;;5005789;28;20054;-59
2023/08/19 02:33:31;;;;;;;27.42;24.52;;;20.20;99.90;;;;;;5004265;28;20061;-57
2023/08/19 02:35:57;;;;;;;26.67;23.95;;;20.20;99.90;;;;;;5005794;28;20512;-59
2023/08/19 02:38:22;;;;;;;28.00;25.00;;;20.20;99.90;;;;;;5004669;28;20088;-59
2023/08/19 02:40:49;;;;;;;29.50;26.33;;;20.20;99.90;;;;;;5004851;28;20108;-59
2023/08/19 02:43:15;;;;;;;26.30;23.70;;;20.20;99.90;;;;;;5004815;28;20049;-58
2023/08/19 02:45:41;;;;;;;27.58;24.55;;;20.20;99.90;;;;;;5003071;28;20052;-58
2023/08/19 02:48:07;;;;;;;28.10;25.20;;;20.30;99.90;;;;;;5005153;28;20046;-58
2023/08/19 02:50:33;;;;;;;28.42;25.40;;;20.20;99.90;;;;;;5005186;28;20057;-58
2023/08/19 02:52:58;;;;;;;28.90;26.08;;;20.20;99.90;;;;;;5005062;28;20125;-58
2023/08/19 02:55:24;;;;;;;28.27;25.50;;;20.20;99.90;;;;;;5001503;28;20049;-57
2023/08/19 02:57:50;;;;;;;27.55;24.83;;;20.20;99.90;;;;;;4993808;28;20042;-58
2023/08/19 03:00:16;;;;;;;29.92;26.92;;;20.30;99.90;;;;;;4985713;28;20038;-57
2023/08/19 03:02:46;;;;;;;29.55;26.48;;;20.20;99.90;;;;;;4985156;28;20130;-57
2023/08/19 03:05:12;;;;;;;28.45;25.38;;;20.20;99.90;;;;;;4985298;28;20038;-58
2023/08/19 03:07:37;;;;;;;29.27;26.17;;;20.20;99.90;;;;;;4985144;28;20061;-58
2023/08/19 03:10:04;;;;;;;27.98;25.17;;;20.20;99.90;;;;;;4985224;28;20799;-58
2023/08/19 03:12:29;;;;;;;30.35;27.30;;;20.20;99.90;;;;;;4983396;28;20042;-58
2023/08/19 03:14:55;;;;;;;29.15;26.13;;;20.20;99.90;;;;;;4984486;28;20053;-58
2023/08/19 03:17:21;;;;;;;29.45;25.77;;;20.10;99.90;;;;;;4984986;28;20093;-59
2023/08/19 03:19:46;;;;;;;29.77;26.73;;;20.30;99.90;;;;;;4984563;28;20041;-58
2023/08/19 03:22:12;;;;;;;30.33;27.25;;;20.10;99.90;;;;;;4984273;28;20057;-58
2023/08/19 03:24:38;;;;;;;29.98;26.90;;;20.20;99.90;;;;;;4984411;28;20432;-59
2023/08/19 03:27:04;;;;;;;29.90;26.88;;;20.10;99.90;;;;;;4983456;28;20057;-58
2023/08/19 03:29:29;;;;;;;29.20;26.17;;;20.10;99.90;;;;;;4984269;28;20035;-58
2023/08/19 03:31:57;;;;;;;28.75;25.65;;;20.00;99.90;;;;;;4984982;28;20046;-58
2023/08/19 03:34:23;;;;;;;28.52;25.63;;;20.10;99.90;;;;;;4985120;28;20112;-58
2023/08/19 03:36:48;;;;;;;31.10;27.70;;;20.10;99.90;;;;;;4984666;28;20094;-58
2023/08/19 03:39:14;;;;;;;29.33;26.25;;;20.00;99.90;;;;;;4985436;28;20085;-59
2023/08/19 03:41:40;;;;;;;29.05;26.10;;;20.10;99.90;;;;;;4984631;28;20388;-59
2023/08/19 03:44:06;;;;;;;28.92;26.13;;;20.00;99.90;;;;;;4984587;28;20045;-57
2023/08/19 03:46:31;;;;;;;27.55;24.60;;;20.10;99.90;;;;;;4984724;28;20129;-58
2023/08/19 03:48:57;;;;;;;29.52;26.40;;;20.00;99.90;;;;;;5000120;28;20069;-58
2023/08/19 03:51:22;;;;;;;28.95;25.90;;;20.10;99.90;;;;;;4983553;28;20061;-58
2023/08/19 03:53:48;;;;;;;30.88;27.58;;;20.10;99.90;;;;;;4984499;28;20046;-58
2023/08/19 03:56:14;;;;;;;27.65;24.77;;;20.00;99.90;;;;;;4987697;28;20049;-58
2023/08/19 03:58:39;;;;;;;29.25;26.15;;;20.10;99.90;;;;;;4990882;28;20106;-58
2023/08/19 04:01:08;;;;;;;28.10;25.38;;;20.10;99.90;;;;;;4984636;28;20035;-58
2023/08/19 04:03:34;;;;;;;30.35;27.25;;;20.00;99.90;;;;;;4983961;28;20386;-58
2023/08/19 04:06:00;;;;;;;28.42;24.90;;;20.10;99.90;;;;;;4984612;28;20054;-58
2023/08/19 04:08:26;;;;;;;28.23;25.27;;;20.00;99.90;;;;;;4983799;28;20042;-59
2023/08/19 04:10:52;;;;;;;29.25;26.15;;;20.10;99.90;;;;;;4984526;28;20053;-59
2023/08/19 04:13:18;;;;;;;29.58;26.35;;;20.10;99.90;;;;;;4984260;28;20052;-58
2023/08/19 04:15:43;;;;;;;30.08;26.77;;;20.10;99.90;;;;;;4983513;28;20050;-59
2023/08/19 04:18:10;;;;;;;30.52;27.35;;;20.00;99.90;;;;;;4981970;28;20386;-58
2023/08/19 04:20:39;;;;;;;30.02;27.08;;;20.10;99.90;;;;;;4984097;28;20497;-59
2023/08/19 04:23:05;;;;;;;30.70;27.40;;;20.00;99.90;;;;;;4983823;28;20034;-58
2023/08/19 04:25:31;;;;;;;29.80;26.73;;;20.10;99.90;;;;;;4983169;28;20054;-59
2023/08/19 04:27:57;;;;;;;29.00;25.95;;;20.00;99.90;;;;;;4983016;28;20046;-59
2023/08/19 04:30:22;;;;;;;29.38;25.42;;;20.00;99.90;;;;;;4983854;28;20034;-58
2023/08/19 04:32:48;;;;;;;29.98;26.80;;;20.20;99.90;;;;;;4984730;28;20059;-58
2023/08/19 04:35:14;;;;;;;28.63;25.67;;;20.10;99.90;;;;;;4983597;28;20437;-58
2023/08/19 04:37:40;;;;;;;33.60;25.42;;;20.10;99.90;;;;;;4983909;28;20044;-58
2023/08/19 04:40:09;;;;;;;28.33;25.08;;;20.30;99.90;;;;;;4987521;28;20404;-58
2023/08/19 04:42:38;;;;;;;26.75;24.15;;;20.20;99.90;;;;;;4985670;28;20057;-58
2023/08/19 04:45:05;;;;;;;26.65;23.92;;;20.20;99.90;;;;;;4988284;28;20050;-58
2023/08/19 04:47:33;;;;;;;25.55;22.83;;;20.30;99.90;;;;;;4987989;28;20453;-58
2023/08/19 04:49:59;;;;;;;27.38;24.02;;;20.30;99.90;;;;;;4987837;28;20050;-58
2023/08/19 04:52:25;;;;;;;26.10;23.27;;;20.30;99.90;;;;;;4987688;28;20077;-58
2023/08/19 04:54:50;;;;;;;26.20;23.35;;;20.50;99.90;;;;;;4988262;28;20030;-58
2023/08/19 04:57:16;;;;;;;27.08;24.30;;;20.40;99.90;;;;;;4997970;28;20104;-58
2023/08/19 04:59:41;;;;;;;25.90;23.25;;;20.40;99.90;;;;;;4987522;28;20109;-58
2023/08/19 05:02:07;;;;;;;27.83;23.58;;;20.50;99.90;;;;;;4987690;28;20134;-58
2023/08/19 05:04:33;;;;;;;25.65;22.98;;;20.50;99.90;;;;;;4986997;28;20046;-59
2023/08/19 05:06:59;;;;;;;25.70;22.90;;;20.50;99.90;;;;;;4987931;28;20405;-59
2023/08/19 05:09:24;;;;;;;25.17;22.63;;;20.60;99.90;;;;;;4987711;28;20787;-58
2023/08/19 05:11:50;;;;;;;24.60;22.10;;;20.60;99.90;;;;;;4986500;28;20046;-59
2023/08/19 05:14:16;;;;;;;25.58;22.05;;;20.60;99.90;;;;;;4987578;28;20054;-58
2023/08/19 05:16:42;;;;;;;24.23;21.80;;;20.70;99.90;;;;;;4986677;28;20054;-59
2023/08/19 05:19:16;;;;;;;22.90;20.67;;;20.80;99.90;;;;;;4987014;28;20042;-59
2023/08/19 05:21:42;;;;;;;23.60;21.13;;;20.80;99.90;;;;;;4986802;28;20133;-58
2023/08/19 05:24:10;;;;;;;23.33;20.90;;;20.90;99.90;;;;;;4987149;28;20188;-59
2023/08/19 05:26:37;;;;;;;22.40;20.17;;;21.00;99.90;;;;;;4987086;28;20109;-58
2023/08/19 05:29:02;;;;;;;21.52;19.33;;;21.10;99.90;;;;;;4995254;28;20039;-58
2023/08/19 05:31:29;;;;;;;21.67;19.38;;;21.10;99.90;;;;;;4996682;28;20049;-58
2023/08/19 05:33:54;;;;;;;21.55;19.42;;;21.20;99.90;;;;;;4993244;28;20053;-58
2023/08/19 05:36:20;;;;;;;21.73;19.42;;;21.20;99.90;;;;;;4987505;28;20042;-58
2023/08/19 05:38:46;;;;;;;22.65;20.02;;;21.30;99.90;;;;;;4987506;28;20046;-56
2023/08/19 05:41:12;;;;;;;20.95;18.73;;;21.50;99.90;;;;;;5020688;28;20069;-57
2023/08/19 05:43:37;;;;;;;19.73;17.67;;;21.70;99.90;;;;;;5005605;28;20048;-59
2023/08/19 05:46:05;;;;;;;21.70;18.23;;;21.70;99.90;;;;;;5006189;28;20045;-59
2023/08/19 05:48:31;;;;;;;19.58;17.60;;;21.80;99.90;;;;;;5005489;28;20045;-58
2023/08/19 05:50:57;;;;;;;20.05;17.45;;;21.90;99.90;;;;;;5006043;28;20050;-59
2023/08/19 05:53:22;;;;;;;20.90;17.23;;;22.10;99.90;;;;;;5005998;28;20068;-59
2023/08/19 05:55:48;;;;;;;19.23;17.25;;;22.40;99.90;;;;;;5000005;28;20589;-59
2023/08/19 05:58:15;;;;;;;18.00;16.20;;;22.50;99.90;;;;;;4993996;28;20397;-58
2023/08/19 06:00:41;;;;;;;18.45;16.55;;;22.50;99.90;;;;;;4986693;28;20082;-57
2023/08/19 06:03:07;;;;;;;17.40;15.27;;;22.40;99.90;;;;;;4989517;28;20041;-58
2023/08/19 06:05:35;;;;;;;19.35;16.48;;;22.20;99.90;;;;;;5005516;28;20042;-59
2023/08/19 06:08:00;;;;;;;16.98;15.20;;;22.20;99.90;;;;;;5005711;28;20042;-58
2023/08/19 06:10:26;;;;;;;16.90;15.20;;;22.20;99.90;;;;;;5005355;28;20083;-58
2023/08/19 06:12:52;;;;;;;16.38;14.68;;;22.30;99.90;;;;;;5005263;28;20121;-57
2023/08/19 06:15:17;;;;;;;17.55;15.75;;;22.40;99.90;;;;;;5005101;28;20505;-58
2023/08/19 06:17:43;;;;;;;17.20;15.60;;;22.40;99.90;;;;;;5006005;28;20049;-58
2023/08/19 06:20:09;;;;;;;18.17;15.18;;;22.30;99.90;;;;;;5005120;28;20084;-58
2023/08/19 06:22:35;;;;;;;16.20;14.50;;;22.30;99.90;;;;;;5005104;28;20046;-58
2023/08/19 06:25:02;;;;;;;16.90;15.20;;;22.30;99.90;;;;;;5004783;28;20041;-58
2023/08/19 06:27:27;;;;;;;16.30;14.60;;;22.30;99.90;;;;;;5005686;28;20057;-58
2023/08/19 06:29:53;;;;;;;16.10;14.30;;;22.30;99.90;;;;;;5005337;28;20045;-58
2023/08/19 06:32:19;;;;;;;18.23;14.70;;;22.40;99.90;;;;;;5020776;28;20420;-58
2023/08/19 06:34:45;;;;;;;15.90;14.30;;;22.50;99.90;;;;;;4999236;28;20034;-58
2023/08/19 06:37:14;;;;;;;15.10;13.48;;;22.70;99.90;;;;;;4985524;28;20532;-58
2023/08/19 06:39:47;;;;;;;15.73;14.05;;;22.90;99.90;;;;;;4985557;28;20492;-56
2023/08/19 06:42:15;;;;;;;15.65;14.05;;;22.90;99.90;;;;;;4985158;28;20069;-58
2023/08/19 06:44:42;;;;;;;14.88;13.27;;;22.90;99.90;;;;;;4985599;28;20563;-58
2023/08/19 06:47:10;;;;;;;13.88;12.57;;;22.90;99.90;;;;;;4985297;28;20182;-58
2023/08/19 06:49:36;;;;;;;15.85;13.73;;;22.70;99.90;;;;;;4985196;28;20049;-58
2023/08/19 06:52:03;;;;;;;15.05;13.45;;;22.70;99.90;;;;;;4985229;28;20073;-58
2023/08/19 06:54:29;;;;;;;15.20;13.60;;;23.40;99.90;;;;;;4985376;28;20046;-59
2023/08/19 06:57:07;;;;;;;16.45;14.13;;;22.60;99.90;;;;;;4995756;28;20048;-59
2023/08/19 06:59:36;;;;;;;15.15;13.45;;;22.60;99.90;;;;;;4985454;28;20050;-58
2023/08/19 07:02:03;;;;;;;16.30;13.68;;;22.50;99.90;;;;;;4984769;28;20118;-59
2023/08/19 07:04:29;;;;;;;14.90;13.38;;;22.50;99.90;;;;;;4985358;28;20062;-58
2023/08/19 07:07:01;;;;;;;14.95;12.95;;;22.50;99.90;;;;;;4998552;28;20041;-57
2023/08/19 07:09:27;;;;;;;16.15;13.32;;;22.50;99.90;;;;;;4994816;28;20042;-58
2023/08/19 07:11:57;;;;;;;16.08;14.07;;;22.50;99.90;;;;;;4994963;28;20049;-58
2023/08/19 07:14:25;;;;;;;15.40;13.80;;;22.40;99.90;;;;;;4993382;28;20122;-59
2023/08/19 07:16:52;;;;;;;14.48;13.07;;;22.50;99.90;;;;;;4993450;28;20549;-59
2023/08/19 07:19:25;;;;;;;15.00;12.95;;;22.40;99.90;;;;;;4985717;28;20042;-58
2023/08/19 07:21:51;;;;;;;14.07;12.68;;;22.40;99.90;;;;;;4995696;28;20044;-59
2023/08/19 07:24:17;;;;;;;15.43;12.57;;;22.40;99.90;;;;;;4999709;28;20048;-58
2023/08/19 07:26:44;;;;;;;14.40;13.00;;;22.40;99.90;;;;;;4993325;28;20038;-58
2023/08/19 07:29:11;;;;;;;14.80;12.73;;;22.40;99.90;;;;;;4985115;28;20493;-58
2023/08/19 07:31:37;;;;;;;13.80;12.40;;;22.40;99.90;;;;;;4984919;28;20405;-57
2023/08/19 07:34:02;;;;;;;14.18;12.60;;;22.40;99.90;;;;;;4985528;28;20129;-58
2023/08/19 07:36:28;;;;;;;13.75;12.25;;;22.40;99.90;;;;;;4990039;28;20042;-61
2023/08/19 07:38:54;;;;;;;19.05;12.55;;;22.40;99.90;;;;;;5003361;28;20794;-60
2023/08/19 07:41:20;;;;;;;14.10;12.70;;;22.50;99.90;;;;;;5003369;28;20090;-61
2023/08/19 07:43:47;;;;;;;14.52;12.70;;;22.50;99.90;;;;;;4985607;28;20039;-61
2023/08/19 07:46:15;;;;;;;14.50;12.85;;;22.50;99.90;;;;;;4985210;28;20134;-60
2023/08/19 07:48:42;;;;;;;15.13;12.10;;;22.50;99.90;;;;;;4983032;28;20081;-61
2023/08/19 07:51:08;;;;;;;13.80;12.32;;;22.60;99.90;;;;;;4985318;28;20057;-62
2023/08/19 07:53:34;;;;;;;15.98;12.63;;;22.60;99.90;;;;;;4985300;28;20042;-64
2023/08/19 07:56:00;;;;;;;14.48;12.02;;;22.70;99.90;;;;;;4987408;28;20038;-63
2023/08/19 07:58:25;;;;;;;15.55;12.77;;;22.70;99.90;;;;;;4996819;28;20933;-64
2023/08/19 08:00:51;;;;;;;14.75;12.73;;;22.80;99.90;;;;;;5004092;28;20532;-61
2023/08/19 08:03:17;;;;;;;15.15;12.75;;;22.90;99.90;;;;;;5003812;28;20377;-61
2023/08/19 08:05:43;;;;;;;14.50;11.80;;;22.90;99.90;;;;;;5004144;28;20125;-63
2023/08/19 08:08:08;;;;;;;13.93;12.13;;;23.10;99.90;;;;;;5001303;28;20475;-56
2023/08/19 08:10:34;;;;;;;13.32;11.93;;;23.00;99.90;;;;;;5002320;28;20397;-56
2023/08/19 08:12:59;;;;;;;13.30;11.43;;;23.10;99.90;;;;;;5004094;28;20030;-55
2023/08/19 08:15:25;;;;;;;12.88;11.50;;;23.10;99.90;;;;;;5007202;28;20058;-57
2023/08/19 08:17:51;;;;;;;13.60;12.15;;;23.20;99.90;;;;;;5007494;28;20040;-54
2023/08/19 08:20:17;;;;;;;13.05;10.90;;;23.30;99.90;;;;;;5006664;28;20461;-58
2023/08/19 08:22:42;;;;;;;13.13;11.43;;;23.30;99.90;;;;;;5006834;28;20530;-63
2023/08/19 08:25:09;;;;;;;11.85;10.73;;;23.30;99.90;;;;;;5006093;28;20510;-61
2023/08/19 08:27:35;;;;;;;12.52;10.32;;;23.40;99.90;;;;;;5005913;28;20121;-63
2023/08/19 08:30:01;;;;;;;14.15;10.65;;;23.50;99.90;;;;;;5005269;28;20122;-60
2023/08/19 08:32:27;;;;;;;11.55;10.45;;;23.50;99.90;;;;;;5006854;28;20500;-60
2023/08/19 08:34:52;;;;;;;12.35;10.10;;;23.60;99.90;;;;;;5002163;28;20052;-60
2023/08/19 08:37:19;;;;;;;11.80;10.38;;;23.70;99.90;;;;;;5005432;28;20042;-60
2023/08/19 08:39:45;;;;;;;11.10;9.90;;;23.80;99.90;;;;;;5001198;28;20088;-58
2023/08/19 08:42:11;;;;;;;10.95;9.65;;;23.90;99.90;;;;;;5000197;28;20049;-60
2023/08/19 08:44:37;;;;;;;10.68;9.52;;;24.00;99.90;;;;;;5008121;28;20038;-60
2023/08/19 08:47:03;;;;;;;10.35;9.35;;;24.10;99.90;;;;;;5007612;28;20149;-60
2023/08/19 08:49:29;;;;;;;13.80;9.25;;;24.20;99.90;;;;;;5008131;28;20034;-59
2023/08/19 08:51:59;;;;;;;10.80;9.30;;;24.20;99.90;;;;;;5007560;28;20068;-60
2023/08/19 08:54:26;;;;;;;12.85;9.52;;;24.30;99.90;;;;;;5007436;28;20046;-59
2023/08/19 08:56:52;;;;;;;10.52;8.90;;;24.30;99.90;;;;;;5004802;28;20481;-60
2023/08/19 08:59:18;;;;;;;10.88;9.10;;;24.40;99.90;;;;;;4988943;28;20390;-59
2023/08/19 09:01:45;;;;;;;9.30;8.27;;;24.50;99.90;;;;;;4988210;28;20054;-60
2023/08/19 09:04:15;;;;;;;10.60;8.20;;;24.50;99.90;;;;;;4987634;28;20049;-60
2023/08/19 09:06:42;;;;;;;13.27;7.85;;;24.60;99.90;;;;;;4988283;28;20041;-59
2023/08/19 09:09:11;;;;;;;10.63;7.78;;;24.70;99.90;;;;;;4988093;28;20109;-60
2023/08/19 09:11:40;;;;;;;8.30;7.18;;;24.80;99.90;;;;;;4987277;28;20082;-60
2023/08/19 09:14:44;;;;;;;12.55;7.20;;;25.00;99.90;;;;;;4988277;28;20057;-59
2023/08/19 09:17:17;;;;;;;8.40;6.93;;;25.10;99.90;;;;;;4976685;28;20420;-58
2023/08/19 09:19:43;;;;;;;8.18;7.18;;;25.20;99.90;;;;;;4988328;28;20089;-59
2023/08/19 09:22:17;;;;;;;7.57;6.78;;;25.30;99.90;;;;;;4987124;28;20069;-60
2023/08/19 09:24:44;;;;;;;9.27;6.72;;;25.50;99.90;;;;;;4986348;28;20054;-59
2023/08/19 09:27:09;;;;;;;7.57;6.78;;;25.70;99.90;;;;;;4987900;28;20042;-60
2023/08/19 09:29:35;;;;;;;7.38;6.68;;;26.00;99.90;;;;;;4987793;28;20109;-61
2023/08/19 09:32:02;;;;;;;9.05;6.25;;;26.20;99.90;;;;;;4987476;28;20049;-60
2023/08/19 09:34:28;;;;;;;12.18;6.72;;;26.50;99.90;;;;;;4987441;28;20129;-59
2023/08/19 09:36:56;;;;;;;8.20;6.10;;;26.50;99.90;;;;;;4987045;28;20462;-58
2023/08/19 09:39:25;;;;;;;7.97;6.38;;;26.70;99.90;;;;;;4986944;28;20048;-60
2023/08/19 09:41:57;;;;;;;9.07;5.50;;;26.60;99.90;;;;;;4987861;28;20169;-60
2023/08/19 09:44:26;;;;;;;6.97;5.75;;;26.50;99.90;;;;;;4986872;28;20498;-60
2023/08/19 09:46:54;;;;;;;9.55;6.38;;;26.50;99.90;;;;;;4987725;28;20044;-58
2023/08/19 09:49:22;;;;;;;9.15;6.03;;;26.40;99.90;;;;;;4987591;28;20246;-60
2023/08/19 09:51:59;;;;;;;9.88;5.20;;;26.50;99.90;;;;;;5001664;28;20054;-60
2023/08/19 09:54:25;;;;;;;9.38;6.22;;;26.50;99.90;;;;;;4986946;28;20049;-60
2023/08/19 09:56:58;;;;;;;9.95;5.65;;;26.60;99.90;;;;;;4996069;28;20077;-60
2023/08/19 09:59:26;;;;;;;7.30;5.77;;;26.60;99.90;;;;;;4986552;28;20042;-61
2023/08/19 10:01:56;;;;;;;9.57;6.30;;;26.60;99.90;;;;;;4987072;28;20046;-59
2023/08/19 10:04:22;;;;;;;8.80;6.95;;;26.50;99.90;;;;;;4986743;28;20043;-60
2023/08/19 10:06:51;;;;;;;9.82;6.38;;;26.50;99.90;;;;;;4984526;28;20405;-60
2023/08/19 10:09:24;;;;;;;12.75;6.50;;;26.40;99.90;;;;;;4986423;28;20045;-60
2023/08/19 10:11:52;;;;;;;7.53;6.03;;;26.40;99.90;;;;;;4986997;28;20053;-60
2023/08/19 10:14:23;;;;;;;8.23;6.45;;;26.30;99.90;;;;;;4986057;28;20145;-60
2023/08/19 10:16:50;;;;;;;9.98;6.65;;;26.30;99.90;;;;;;4986864;28;20038;-60
2023/08/19 10:19:22;;;;;;;11.10;7.00;;;26.30;99.90;;;;;;4986751;28;20049;-60
2023/08/19 10:21:49;;;;;;;7.93;6.40;;;26.40;99.90;;;;;;4986907;28;20421;-60
2023/08/19 10:24:17;;;;;;;8.40;7.10;;;26.40;99.90;;;;;;4985933;28;20038;-59
2023/08/19 10:26:49;;;;;;;8.50;6.43;;;26.50;99.90;;;;;;4986884;28;20500;-58
2023/08/19 10:29:15;;;;;;;8.30;6.00;;;26.60;99.90;;;;;;4986560;28;20548;-61
2023/08/19 10:31:42;;;;;;;10.90;6.68;;;26.60;99.90;;;;;;4986395;28;20377;-60
2023/08/19 10:34:29;;;;;;;8.45;6.00;;;26.80;99.90;;;;;;4986412;28;20054;-60
2023/08/19 10:37:09;;;;;;;9.25;6.30;;;26.80;99.90;;;;;;4985332;28;20042;-60
2023/08/19 10:39:35;;;;;;;11.85;7.00;;;26.90;99.90;;;;;;4984865;28;20117;-57
2023/08/19 10:42:01;;;;;;;11.30;5.90;;;27.10;99.90;;;;;;4984597;28;20046;-57
2023/08/19 10:44:33;;;;;;;8.63;6.20;;;27.20;99.90;;;;;;4986307;28;20551;-59
2023/08/19 10:47:09;;;;;;;9.70;6.72;;;27.30;99.90;;;;;;4985798;28;20054;-58
2023/08/19 10:49:35;;;;;;;12.48;5.85;;;27.40;99.90;;;;;;4985901;28;20050;-61
2023/08/19 10:52:05;;;;;;;7.57;6.05;;;27.60;99.90;;;;;;4986044;28;20074;-61
2023/08/19 10:54:43;;;;;;;10.68;6.78;;;27.60;99.90;;;;;;4984582;28;20049;-60
2023/08/19 10:57:21;;;;;;;13.82;6.05;;;27.60;99.90;;;;;;5002927;28;20050;-61
2023/08/19 10:59:58;;;;;;;8.93;6.13;;;27.60;99.90;;;;;;5005057;28;20042;-60
2023/08/19 11:02:25;;;;;;;7.07;6.00;;;27.50;99.90;;;;;;5005342;28;20061;-58
2023/08/19 11:04:51;;;;;;;9.38;6.00;;;27.50;99.90;;;;;;5005516;28;20045;-59
2023/08/19 11:07:18;;;;;;;9.27;6.32;;;27.50;99.90;;;;;;5005142;28;20049;-59
2023/08/19 11:09:46;;;;;;;7.53;5.88;;;27.40;99.90;;;;;;5004855;28;20073;-60
2023/08/19 11:12:18;;;;;;;11.50;6.40;;;27.30;99.90;;;;;;5005587;28;20045;-60
2023/08/19 11:14:51;;;;;;;10.73;6.07;;;27.20;99.90;;;;;;5004752;28;20065;-59
2023/08/19 11:17:18;;;;;;;9.83;6.37;;;27.10;99.90;;;;;;5005327;28;20050;-61
2023/08/19 11:19:46;;;;;;;9.40;6.65;;;26.90;99.90;;;;;;5005438;28;20065;-61
2023/08/19 11:22:15;;;;;;;11.80;6.85;;;26.60;99.90;;;;;;5005216;28;20080;-61
2023/08/19 11:24:41;;;;;;;15.65;6.72;;;26.50;99.90;;;;;;5004360;28;20104;-60
2023/08/19 11:27:08;;;;;;;10.77;6.93;;;26.40;99.90;;;;;;5005282;28;20076;-61
2023/08/19 11:29:38;;;;;;;10.52;7.32;;;26.20;99.90;;;;;;5004731;28;20045;-59
2023/08/19 11:32:04;;;;;;;11.65;7.60;;;26.10;99.90;;;;;;5005281;28;20042;-60
2023/08/19 11:34:29;;;;;;;10.13;7.30;;;26.00;99.90;;;;;;5004695;28;20041;-58
2023/08/19 11:36:56;;;;;;;11.82;7.30;;;25.90;99.90;;;;;;5004690;28;20095;-57
2023/08/19 11:39:22;;;;;;;13.18;7.75;;;25.70;99.90;;;;;;5004520;28;20049;-60
2023/08/19 11:41:47;;;;;;;9.73;7.70;;;25.60;99.90;;;;;;5020411;28;20046;-58
2023/08/19 11:44:14;;;;;;;11.13;7.88;;;25.60;99.90;;;;;;5005178;28;20519;-61
2023/08/19 11:46:40;;;;;;;10.30;8.05;;;25.50;99.90;;;;;;5004153;28;20049;-59
2023/08/19 11:49:08;;;;;;;12.82;8.13;;;25.40;99.90;;;;;;5004318;28;20125;-61
2023/08/19 11:51:39;;;;;;;10.95;7.50;;;25.40;99.90;;;;;;5003624;28;20042;-60
2023/08/19 11:54:08;;;;;;;10.13;8.00;;;25.40;99.90;;;;;;5003488;28;20107;-58
2023/08/19 11:56:51;;;;;;;11.07;7.78;;;25.40;99.90;;;;;;4998827;28;20042;-60
2023/08/19 11:59:17;;;;;;;10.30;8.32;;;25.40;99.90;;;;;;4985603;28;20046;-60
2023/08/19 12:01:47;;;;;;;9.27;8.35;;;25.50;99.90;;;;;;4985549;28;20093;-58
2023/08/19 12:04:18;;;;;;;13.32;8.88;;;25.50;99.90;;;;;;4985302;28;20039;-60
2023/08/19 12:06:44;;;;;;;13.50;8.50;;;25.60;99.90;;;;;;4985129;28;20122;-61
2023/08/19 12:09:10;;;;;;;14.95;8.93;;;25.80;99.90;;;;;;4984408;28;20050;-60
2023/08/19 12:11:37;;;;;;;20.60;8.98;;;25.80;99.90;;;;;;4984602;28;20042;-60
2023/08/19 12:14:03;;;;;;;11.85;8.60;;;25.90;99.90;;;;;;4984272;28;20054;-58
2023/08/19 12:16:29;;;;;;;10.82;8.55;;;25.90;99.90;;;;;;4985253;28;20102;-61
2023/08/19 12:18:57;;;;;;;12.02;8.40;;;25.80;99.90;;;;;;4984556;28;20038;-60
2023/08/19 12:21:23;;;;;;;12.13;8.75;;;25.80;99.90;;;;;;4984265;28;20053;-60
2023/08/19 12:23:48;;;;;;;12.32;8.50;;;25.80;99.90;;;;;;4983912;28;20383;-59
2023/08/19 12:26:14;;;;;;;12.98;9.25;;;25.80;99.90;;;;;;4983841;28;20038;-59
2023/08/19 12:28:40;;;;;;;11.75;8.60;;;25.80;99.90;;;;;;4984511;28;20469;-60
2023/08/19 12:31:05;;;;;;;11.02;8.80;;;25.80;99.90;;;;;;4983848;28;20543;-60